Alplaus, New York
Current Conditions -  °F | °C
As of 9:51 PM on Monday 20 Oct 2014 (Local Time) from KALB Reporting Station
Overcast Overcast  
Wind Chill: 52°   Ceiling: 9000
Heat Index: 52°   Visibility: 10mi
Dew Point: 36°   Wind: 8mph
Humidity: 54%   Direction: 180°S
Pressure: 29.94"   Gusts: NA
Location:  42.86°N, 73.9°W
Report Text: KALB 210151Z 18007KT 10SM FEW065 OVC090 11/02 A2994 RMK AO2 SLP141 FEW V SCT T01110022
Loading
Personal Weather Stations






























Interactive Weather Map New forecast layout! Learn more

10-Day Weather Forecast

Advertisements
Track Severe Weather on mobile